Time;durP1;ratioP1;P1;durP2;ratioP2;P2;SDS_P1;SDS_P2;PMS_P1;PMS_P2;Temp;Humidity;BMP_temperature;BMP_pressure;BME280_temperature;BME280_humidity;BME280_pressure;Samples;Min_cycle;Max_cycle;Signal;HPM_P1;HPM_P2
2023/04/12 00:01:32;;;;;;;;;;;;;;;15.45;51.58;99550.13;7259944;19;154510;-55
2023/04/12 00:04:03;;;;;;;;;;;;;;;15.45;51.61;99539.00;7261781;19;153125;-55
2023/04/12 00:06:31;;;;;;;;;;;;;;;15.45;51.58;99533.44;7260538;19;154609;-55
2023/04/12 00:08:59;;;;;;;;;;;;;;;15.44;51.38;99533.78;7266357;19;152057;-55
2023/04/12 00:11:27;;;;;;;;;;;;;;;15.47;51.29;99528.41;7261995;19;153644;-55
2023/04/12 00:13:54;;;;;;;;;;;;;;;15.44;51.46;99522.63;7269828;19;152486;-55
2023/04/12 00:16:21;;;;;;;;;;;;;;;15.39;51.57;99515.22;7258819;19;152944;-55
2023/04/12 00:18:50;;;;;;;;;;;;;;;15.43;51.70;99530.16;7260345;19;153364;-55
2023/04/12 00:21:18;;;;;;;;;;;;;;;15.38;51.49;99524.69;7262295;19;153317;-55
2023/04/12 00:23:46;;;;;;;;;;;;;;;15.41;51.58;99517.66;7263716;19;153867;-55
2023/04/12 00:26:13;;;;;;;;;;;;;;;15.39;51.33;99520.78;7257438;19;152823;-55
2023/04/12 00:28:40;;;;;;;;;;;;;;;15.42;51.49;99522.94;7263402;19;152582;-55
2023/04/12 00:31:08;;;;;;;;;;;;;;;15.39;51.42;99511.59;7255548;19;154548;-55
2023/04/12 00:33:35;;;;;;;;;;;;;;;15.40;51.41;99521.63;7262107;19;156301;-55
2023/04/12 00:36:02;;;;;;;;;;;;;;;15.40;51.39;99507.69;7267265;19;153321;-55
2023/04/12 00:38:29;;;;;;;;;;;;;;;15.39;51.29;99492.13;7258084;19;155422;-55
2023/04/12 00:40:56;;;;;;;;;;;;;;;15.39;51.23;99506.03;7260295;19;152339;-55
2023/04/12 00:43:26;;;;;;;;;;;;;;;15.40;51.35;99485.44;7260421;19;153806;-55
2023/04/12 00:45:56;;;;;;;;;;;;;;;15.40;51.54;99483.44;7257347;19;154693;-55
2023/04/12 00:48:23;;;;;;;;;;;;;;;15.41;51.41;99496.25;7257271;19;153543;-55
2023/04/12 00:50:54;;;;;;;;;;;;;;;15.38;51.41;99490.47;7260745;19;153474;-56
2023/04/12 00:53:22;;;;;;;;;;;;;;;15.37;51.58;99494.38;7257532;19;155836;-56
2023/04/12 00:55:50;;;;;;;;;;;;;;;15.37;51.24;99500.78;7261608;19;153902;-55
2023/04/12 00:58:17;;;;;;;;;;;;;;;15.35;51.38;99516.97;7269486;19;154162;-55
2023/04/12 01:00:48;;;;;;;;;;;;;;;15.38;51.17;99532.22;7255011;19;154173;-55
2023/04/12 01:03:21;;;;;;;;;;;;;;;15.38;51.21;99527.47;7261913;19;153387;-55
2023/04/12 01:05:54;;;;;;;;;;;;;;;15.37;51.07;99527.78;7254003;19;154107;-55
2023/04/12 01:08:24;;;;;;;;;;;;;;;15.34;51.18;99523.66;7263949;19;154565;-55
2023/04/12 01:10:55;;;;;;;;;;;;;;;15.37;51.16;99517.47;7256139;19;154019;-55
2023/04/12 01:13:23;;;;;;;;;;;;;;;15.36;51.34;99521.38;7255809;19;155577;-55
2023/04/12 01:15:57;;;;;;;;;;;;;;;15.36;51.03;99523.34;7253121;19;153890;-55
2023/04/12 01:18:26;;;;;;;;;;;;;;;15.38;50.76;99526.66;7256597;19;153856;-55
2023/04/12 01:20:56;;;;;;;;;;;;;;;15.34;51.00;99511.72;7267675;19;153472;-55
2023/04/12 01:23:27;;;;;;;;;;;;;;;15.35;50.86;99513.38;7254601;19;152576;-55
2023/04/12 01:25:57;;;;;;;;;;;;;;;15.39;50.69;99512.44;7257427;19;153079;-55
2023/04/12 01:28:28;;;;;;;;;;;;;;;15.34;51.00;99508.91;7258461;19;153672;-55
2023/04/12 01:30:55;;;;;;;;;;;;;;;15.34;50.73;99500.56;7259813;19;152948;-55
2023/04/12 01:33:23;;;;;;;;;;;;;;;15.36;50.67;99507.47;7257131;19;154678;-55
2023/04/12 01:35:50;;;;;;;;;;;;;;;15.35;50.65;99505.00;7256411;19;154868;-55
2023/04/12 01:38:18;;;;;;;;;;;;;;;15.34;50.77;99498.63;7259835;19;153421;-54
2023/04/12 01:40:45;;;;;;;;;;;;;;;15.33;50.79;99513.66;7256719;19;154412;-55
2023/04/12 01:43:14;;;;;;;;;;;;;;;15.31;50.83;99513.13;7271868;19;153207;-55
2023/04/12 01:45:41;;;;;;;;;;;;;;;15.32;50.41;99512.00;7252897;19;153296;-55
2023/04/12 01:48:09;;;;;;;;;;;;;;;15.33;50.23;99507.28;7256449;19;154284;-55
2023/04/12 01:50:39;;;;;;;;;;;;;;;15.31;50.41;99507.56;7259718;19;154447;-55
2023/04/12 01:53:09;;;;;;;;;;;;;;;15.31;50.31;99515.91;7262398;19;153338;-55
2023/04/12 01:55:38;;;;;;;;;;;;;;;15.30;50.21;99510.69;7259175;19;154080;-55
2023/04/12 01:58:06;;;;;;;;;;;;;;;15.31;50.14;99510.34;7256505;19;153254;-55
2023/04/12 02:00:35;;;;;;;;;;;;;;;15.31;50.40;99509.56;7259269;19;156466;-55
2023/04/12 02:03:04;;;;;;;;;;;;;;;15.28;50.31;99508.19;7265915;19;153175;-55
2023/04/12 02:05:33;;;;;;;;;;;;;;;15.30;50.49;99510.69;7253478;19;154262;-55
2023/04/12 02:08:01;;;;;;;;;;;;;;;15.28;50.20;99502.63;7259344;19;154413;-55
2023/04/12 02:10:29;;;;;;;;;;;;;;;15.28;50.35;99518.50;7259164;19;154070;-55
2023/04/12 02:12:58;;;;;;;;;;;;;;;15.30;49.99;99511.50;7257797;19;156062;-55
2023/04/12 02:15:26;;;;;;;;;;;;;;;15.27;50.35;99519.63;7255828;19;153842;-55
2023/04/12 02:17:53;;;;;;;;;;;;;;;15.27;50.13;99509.31;7254408;19;154416;-55
2023/04/12 02:20:21;;;;;;;;;;;;;;;15.26;49.80;99506.88;7253999;19;153473;-55
2023/04/12 02:22:48;;;;;;;;;;;;;;;15.28;50.15;99493.44;7252228;19;153330;-55
2023/04/12 02:25:19;;;;;;;;;;;;;;;15.29;50.03;99507.06;7260249;19;153156;-55
2023/04/12 02:27:47;;;;;;;;;;;;;;;15.27;49.68;99498.19;7252615;19;154378;-55
2023/04/12 02:30:14;;;;;;;;;;;;;;;15.25;49.79;99491.31;7253969;19;153980;-56
2023/04/12 02:32:42;;;;;;;;;;;;;;;15.25;49.82;99489.34;7248409;19;155391;-55
2023/04/12 02:35:11;;;;;;;;;;;;;;;15.25;49.95;99486.56;7252279;19;154833;-55
2023/04/12 02:37:38;;;;;;;;;;;;;;;15.26;49.69;99479.88;7249163;19;154777;-55
2023/04/12 02:40:05;;;;;;;;;;;;;;;15.23;49.97;99488.81;7253254;19;154232;-55
2023/04/12 02:42:32;;;;;;;;;;;;;;;15.23;49.64;99480.47;7253816;19;153510;-55
2023/04/12 02:44:59;;;;;;;;;;;;;;;15.24;49.81;99482.13;7251757;19;153085;-55
2023/04/12 02:47:28;;;;;;;;;;;;;;;15.24;49.78;99475.72;7255199;19;154279;-55
2023/04/12 02:49:55;;;;;;;;;;;;;;;15.25;49.85;99474.59;7251351;19;153364;-55
2023/04/12 02:52:22;;;;;;;;;;;;;;;15.24;49.55;99481.28;7246057;19;154386;-55
2023/04/12 02:54:50;;;;;;;;;;;;;;;15.24;49.41;99472.94;7252223;19;153590;-55
2023/04/12 02:57:16;;;;;;;;;;;;;;;15.22;49.57;99467.69;7250779;19;154055;-55
2023/04/12 02:59:43;;;;;;;;;;;;;;;15.24;49.71;99473.78;7253456;19;152470;-55
2023/04/12 03:02:10;;;;;;;;;;;;;;;15.23;49.55;99480.47;7251612;19;153736;-55
2023/04/12 03:04:38;;;;;;;;;;;;;;;15.24;49.29;99462.66;7248116;19;154711;-55
2023/04/12 03:07:05;;;;;;;;;;;;;;;15.23;49.45;99474.06;7247362;19;155323;-55
2023/04/12 03:09:33;;;;;;;;;;;;;;;15.22;49.43;99470.47;7260302;19;153904;-55
2023/04/12 03:12:00;;;;;;;;;;;;;;;15.24;49.35;99479.34;7253834;19;154307;-55
2023/04/12 03:14:27;;;;;;;;;;;;;;;15.21;49.52;99474.41;7255010;19;153537;-55
2023/04/12 03:16:55;;;;;;;;;;;;;;;15.23;49.42;99476.84;7250317;19;154463;-55
2023/04/12 03:19:22;;;;;;;;;;;;;;;15.20;49.39;99483.06;7246776;19;153554;-55
2023/04/12 03:21:49;;;;;;;;;;;;;;;15.22;49.22;99475.22;7252910;19;154385;-55
2023/04/12 03:24:16;;;;;;;;;;;;;;;15.22;49.62;99472.44;7248952;19;153644;-55
2023/04/12 03:26:43;;;;;;;;;;;;;;;15.23;49.14;99465.72;7249824;19;154087;-55
2023/04/12 03:29:10;;;;;;;;;;;;;;;15.21;49.26;99468.84;7254845;19;154081;-55
2023/04/12 03:31:37;;;;;;;;;;;;;;;15.21;49.27;99466.06;7258787;19;155919;-55
2023/04/12 03:34:05;;;;;;;;;;;;;;;15.19;49.35;99468.31;7245313;19;153618;-55
2023/04/12 03:36:32;;;;;;;;;;;;;;;15.21;49.32;99462.44;7249306;19;152935;-54
2023/04/12 03:38:59;;;;;;;;;;;;;;;15.17;49.16;99473.38;7248206;19;153535;-55
2023/04/12 03:41:27;;;;;;;;;;;;;;;15.17;49.51;99459.47;7249495;19;153332;-55
2023/04/12 03:43:54;;;;;;;;;;;;;;;15.19;48.98;99459.13;7248929;19;154092;-55
2023/04/12 03:46:21;;;;;;;;;;;;;;;15.20;49.21;99458.84;7248804;19;156249;-55
2023/04/12 03:48:48;;;;;;;;;;;;;;;15.17;49.30;99455.88;7250088;19;153152;-55
2023/04/12 03:51:15;;;;;;;;;;;;;;;15.13;49.06;99458.41;7252514;19;155180;-55
2023/04/12 03:53:42;;;;;;;;;;;;;;;15.14;49.19;99455.34;7257234;19;153095;-55
2023/04/12 03:56:11;;;;;;;;;;;;;;;15.12;49.22;99457.63;7250703;19;154564;-55
2023/04/12 03:58:38;;;;;;;;;;;;;;;15.13;49.22;99458.41;7248144;19;154192;-55
2023/04/12 04:01:05;;;;;;;;;;;;;;;15.13;49.11;99448.13;7250242;19;155028;-55
2023/04/12 04:03:33;;;;;;;;;;;;;;;15.12;49.25;99440.94;7249409;19;153491;-55
2023/04/12 04:06:01;;;;;;;;;;;;;;;15.14;49.31;99443.38;7249083;19;154230;-54
2023/04/12 04:08:28;;;;;;;;;;;;;;;15.16;49.04;99440.28;7250556;19;153888;-54
2023/04/12 04:10:56;;;;;;;;;;;;;;;15.12;49.10;99431.75;7252523;19;153557;-55
2023/04/12 04:13:23;;;;;;;;;;;;;;;15.12;49.14;99434.53;7256377;19;155800;-55
2023/04/12 04:15:50;;;;;;;;;;;;;;;15.15;49.04;99433.91;7247583;19;155701;-55
2023/04/12 04:18:17;;;;;;;;;;;;;;;15.13;48.96;99431.44;7247454;19;154704;-56
2023/04/12 04:20:44;;;;;;;;;;;;;;;15.14;49.03;99438.66;7250433;19;153681;-56
2023/04/12 04:23:11;;;;;;;;;;;;;;;15.10;49.01;99443.19;7248173;19;153451;-55
2023/04/12 04:25:38;;;;;;;;;;;;;;;15.11;49.12;99435.66;7249698;19;153855;-57
2023/04/12 04:28:06;;;;;;;;;;;;;;;15.11;49.09;99441.22;7248659;19;154597;-56
2023/04/12 04:30:37;;;;;;;;;;;;;;;15.09;48.83;99438.75;7251963;19;152836;-56
2023/04/12 04:33:05;;;;;;;;;;;;;;;15.09;48.87;99440.69;7246613;19;153703;-56
2023/04/12 04:35:33;;;;;;;;;;;;;;;15.12;48.83;99434.53;7252840;19;153209;-56
2023/04/12 04:38:00;;;;;;;;;;;;;;;15.12;48.89;99431.75;7246243;19;154169;-56
2023/04/12 04:40:27;;;;;;;;;;;;;;;15.08;48.85;99425.16;7248568;19;154430;-56
2023/04/12 04:42:54;;;;;;;;;;;;;;;15.08;48.73;99428.75;7250442;19;152628;-56
2023/04/12 04:45:25;;;;;;;;;;;;;;;15.10;48.67;99425.66;7247568;19;153939;-56
2023/04/12 04:47:52;;;;;;;;;;;;;;;15.09;48.56;99430.41;7253118;19;154942;-56
2023/04/12 04:50:21;;;;;;;;;;;;;;;15.11;48.62;99425.38;7257401;19;154650;-55
2023/04/12 04:52:49;;;;;;;;;;;;;;;15.10;48.86;99432.06;7255492;19;153869;-56
2023/04/12 04:55:17;;;;;;;;;;;;;;;15.08;48.74;99434.31;7254489;19;153738;-56
2023/04/12 04:57:44;;;;;;;;;;;;;;;15.09;48.75;99429.56;7258629;19;154451;-56
2023/04/12 05:00:12;;;;;;;;;;;;;;;15.05;48.81;99428.53;7260515;19;153746;-56
2023/04/12 05:02:41;;;;;;;;;;;;;;;15.07;48.57;99432.69;7253717;19;153272;-56
2023/04/12 05:05:09;;;;;;;;;;;;;;;15.06;48.63;99432.97;7253632;19;155450;-56
2023/04/12 05:07:37;;;;;;;;;;;;;;;15.05;48.53;99432.16;7251862;19;153313;-56
2023/04/12 05:10:04;;;;;;;;;;;;;;;15.06;48.81;99430.19;7256098;19;153865;-56
2023/04/12 05:12:32;;;;;;;;;;;;;;;15.05;48.64;99429.38;7254401;19;154141;-56
2023/04/12 05:15:00;;;;;;;;;;;;;;;15.01;48.80;99431.13;7253232;19;153863;-56
2023/04/12 05:17:30;;;;;;;;;;;;;;;15.04;48.72;99427.72;7250685;19;154427;-55
2023/04/12 05:19:58;;;;;;;;;;;;;;;15.03;48.29;99434.44;7267202;19;152674;-55
2023/04/12 05:22:25;;;;;;;;;;;;;;;15.06;48.30;99447.72;7255387;19;153806;-56
2023/04/12 05:24:52;;;;;;;;;;;;;;;15.02;48.43;99440.28;7253666;19;154523;-56
2023/04/12 05:27:19;;;;;;;;;;;;;;;15.02;48.38;99435.56;7249755;19;153272;-55
2023/04/12 05:29:46;;;;;;;;;;;;;;;15.03;48.23;99434.44;7258565;19;153661;-56
2023/04/12 05:32:13;;;;;;;;;;;;;;;15.02;48.32;99421.66;7253079;19;154854;-56
2023/04/12 05:34:41;;;;;;;;;;;;;;;15.03;48.54;99422.47;7250473;19;152902;-56
2023/04/12 05:37:08;;;;;;;;;;;;;;;15.03;48.23;99426.09;7251619;19;154465;-56
2023/04/12 05:39:35;;;;;;;;;;;;;;;15.02;48.23;99420.81;7255404;19;154403;-56
2023/04/12 05:42:02;;;;;;;;;;;;;;;15.00;48.44;99425.84;7262259;19;153813;-56
2023/04/12 05:44:29;;;;;;;;;;;;;;;15.02;48.13;99418.03;7251145;19;154199;-55
2023/04/12 05:46:56;;;;;;;;;;;;;;;14.98;48.35;99420.63;7252659;19;153332;-56
2023/04/12 05:49:23;;;;;;;;;;;;;;;14.99;48.51;99425.03;7253127;19;154309;-55
2023/04/12 05:51:49;;;;;;;;;;;;;;;14.97;48.13;99413.41;7253501;19;154583;-55
2023/04/12 05:54:19;;;;;;;;;;;;;;;14.97;48.04;99409.81;7253206;19;152372;-56
2023/04/12 05:56:46;;;;;;;;;;;;;;;14.98;48.17;99417.84;7249648;19;153263;-56
2023/04/12 05:59:13;;;;;;;;;;;;;;;14.95;48.19;99414.84;7253245;19;154086;-56
2023/04/12 06:01:43;;;;;;;;;;;;;;;14.96;48.22;99413.72;7262159;19;152334;-56
2023/04/12 06:04:10;;;;;;;;;;;;;;;14.94;48.11;99411.25;7249813;19;154490;-56
2023/04/12 06:06:37;;;;;;;;;;;;;;;14.98;48.25;99417.84;7251869;19;154181;-53
2023/04/12 06:09:04;;;;;;;;;;;;;;;14.97;47.94;99418.16;7253831;19;155175;-55
2023/04/12 06:11:32;;;;;;;;;;;;;;;14.95;48.10;99406.50;7252460;19;154440;-55
2023/04/12 06:14:00;;;;;;;;;;;;;;;14.95;47.85;99396.19;7254405;19;153866;-54
2023/04/12 06:16:27;;;;;;;;;;;;;;;14.92;47.91;99391.25;7247968;19;154342;-55
2023/04/12 06:18:54;;;;;;;;;;;;;;;14.93;48.36;99406.00;7253069;19;154348;-55
2023/04/12 06:21:22;;;;;;;;;;;;;;;14.92;48.01;99407.13;7257391;19;154465;-56
2023/04/12 06:23:49;;;;;;;;;;;;;;;14.95;47.89;99404.53;7262207;19;154741;-56
2023/04/12 06:26:15;;;;;;;;;;;;;;;14.95;48.06;99406.50;7252351;19;153615;-56
2023/04/12 06:28:44;;;;;;;;;;;;;;;14.94;47.84;99402.09;7253681;19;153740;-56
2023/04/12 06:31:11;;;;;;;;;;;;;;;14.94;48.02;99402.09;7254614;19;154233;-56
2023/04/12 06:33:38;;;;;;;;;;;;;;;14.94;47.86;99402.91;7252864;19;153793;-56
2023/04/12 06:36:06;;;;;;;;;;;;;;;14.93;47.93;99403.22;7248640;19;154894;-56
2023/04/12 06:38:33;;;;;;;;;;;;;;;14.92;48.01;99399.59;7251223;19;154012;-56
2023/04/12 06:41:00;;;;;;;;;;;;;;;14.91;47.99;99397.94;7255663;19;153860;-56
2023/04/12 06:43:27;;;;;;;;;;;;;;;14.96;47.87;99397.03;7252841;19;153318;-56
2023/04/12 06:45:55;;;;;;;;;;;;;;;14.90;47.97;99393.53;7257297;19;153639;-55
2023/04/12 06:48:23;;;;;;;;;;;;;;;14.91;47.64;99394.34;7251633;19;153506;-56
2023/04/12 06:50:50;;;;;;;;;;;;;;;14.89;47.70;99386.34;7254014;19;153909;-55
2023/04/12 06:53:16;;;;;;;;;;;;;;;14.89;47.88;99391.06;7253741;19;154501;-56
2023/04/12 06:55:44;;;;;;;;;;;;;;;14.88;47.54;99370.78;7251823;19;153491;-56
2023/04/12 06:58:11;;;;;;;;;;;;;;;14.89;47.94;99377.16;7249558;19;156388;-56
2023/04/12 07:00:38;;;;;;;;;;;;;;;14.87;47.72;99374.69;7254447;19;153611;-56
2023/04/12 07:03:05;;;;;;;;;;;;;;;14.88;47.42;99370.78;7252954;19;155432;-56
2023/04/12 07:05:32;;;;;;;;;;;;;;;14.88;47.51;99361.59;7248025;19;156027;-56
2023/04/12 07:07:59;;;;;;;;;;;;;;;14.89;47.63;99364.09;7257367;19;153321;-55
2023/04/12 07:10:27;;;;;;;;;;;;;;;14.87;47.36;99357.19;7254090;19;153751;-56
2023/04/12 07:12:54;;;;;;;;;;;;;;;14.91;47.54;99358.19;7252794;19;152628;-55
2023/04/12 07:15:21;;;;;;;;;;;;;;;14.86;47.63;99361.09;7251137;19;154054;-56
2023/04/12 07:17:48;;;;;;;;;;;;;;;14.87;47.38;99357.19;7246977;19;153624;-55
2023/04/12 07:20:16;;;;;;;;;;;;;;;14.87;47.44;99362.72;7253257;19;152466;-56
2023/04/12 07:22:43;;;;;;;;;;;;;;;14.85;47.22;99345.56;7251996;19;153999;-56
2023/04/12 07:25:11;;;;;;;;;;;;;;;14.85;47.73;99351.94;7248359;19;154162;-56
2023/04/12 07:27:38;;;;;;;;;;;;;;;14.85;47.58;99340.81;7247223;19;153788;-56
2023/04/12 07:30:06;;;;;;;;;;;;;;;14.83;47.54;99331.97;7262145;19;152945;-56
2023/04/12 07:32:33;;;;;;;;;;;;;;;14.85;47.45;99342.78;7252373;19;153878;-56
2023/04/12 07:35:00;;;;;;;;;;;;;;;14.86;47.43;99344.41;7250626;19;153975;-56
2023/04/12 07:37:27;;;;;;;;;;;;;;;14.84;47.47;99333.59;7244832;19;154159;-55
2023/04/12 07:39:54;;;;;;;;;;;;;;;14.84;47.56;99332.78;7252279;19;153400;-55
2023/04/12 07:42:21;;;;;;;;;;;;;;;14.85;47.27;99320.53;7254760;19;154534;-55
2023/04/12 07:44:49;;;;;;;;;;;;;;;14.83;47.32;99331.13;7250622;19;153864;-55
2023/04/12 07:47:16;;;;;;;;;;;;;;;14.81;47.65;99331.44;7249570;19;153769;-56
2023/04/12 07:49:43;;;;;;;;;;;;;;;14.82;47.55;99332.25;7249935;19;154356;-55
2023/04/12 07:52:10;;;;;;;;;;;;;;;14.81;47.44;99334.22;7259167;19;154306;-56
2023/04/12 07:54:37;;;;;;;;;;;;;;;14.81;47.62;99334.22;7250081;19;153635;-55
2023/04/12 07:57:04;;;;;;;;;;;;;;;14.84;47.45;99339.16;7247664;19;153865;-56
2023/04/12 07:59:32;;;;;;;;;;;;;;;14.83;47.40;99336.69;7250512;19;153117;-55
2023/04/12 08:02:00;;;;;;;;;;;;;;;14.77;47.64;99329.56;7250943;19;154155;-55
2023/04/12 08:04:29;;;;;;;;;;;;;;;14.80;47.44;99326.19;7249060;19;154091;-55
2023/04/12 08:06:56;;;;;;;;;;;;;;;14.79;47.49;99330.09;7248130;19;154603;-55
2023/04/12 08:09:23;;;;;;;;;;;;;;;14.79;47.37;99316.22;7252688;19;153376;-56
2023/04/12 08:11:51;;;;;;;;;;;;;;;14.82;47.39;99307.22;7258074;19;153901;-54
2023/04/12 08:14:22;;;;;;;;;;;;;;;14.80;47.09;99301.19;7250820;19;154037;-56
2023/04/12 08:16:49;;;;;;;;;;;;;;;14.78;47.11;99311.78;7245979;19;153977;-55
2023/04/12 08:19:17;;;;;;;;;;;;;;;14.79;46.87;99292.00;7249641;19;153460;-55
2023/04/12 08:21:44;;;;;;;;;;;;;;;14.76;46.94;99300.16;7256505;19;154125;-56
2023/04/12 08:24:18;;;;;;;;;;;;;;;14.79;46.74;99299.53;7254067;19;155360;-56
2023/04/12 08:26:45;;;;;;;;;;;;;;;14.77;46.67;99296.22;7254296;19;154511;-56
2023/04/12 08:29:12;;;;;;;;;;;;;;;14.77;46.79;99287.88;7258137;19;153426;-55
2023/04/12 08:31:40;;;;;;;;;;;;;;;14.75;46.91;99301.28;7253351;19;154194;-56
2023/04/12 08:34:09;;;;;;;;;;;;;;;14.76;46.79;99283.47;7264368;19;153267;-56
2023/04/12 08:36:40;;;;;;;;;;;;;;;14.76;46.56;99283.47;7251937;19;153996;-54
2023/04/12 08:39:10;;;;;;;;;;;;;;;14.76;46.45;99281.53;7253782;19;151964;-56
2023/04/12 08:41:41;;;;;;;;;;;;;;;14.74;46.37;99288.50;7256576;19;153401;-55
2023/04/12 08:44:10;;;;;;;;;;;;;;;14.78;46.22;99278.41;7258341;19;154442;-56
2023/04/12 08:46:37;;;;;;;;;;;;;;;14.73;46.33;99271.00;7254737;19;153343;-56
2023/04/12 08:49:04;;;;;;;;;;;;;;;14.76;46.32;99273.19;7256695;19;153825;-56
2023/04/12 08:51:33;;;;;;;;;;;;;;;14.78;46.36;99278.41;7255220;19;155108;-55
2023/04/12 08:54:00;;;;;;;;;;;;;;;14.75;46.16;99279.88;7254384;19;152718;-55
2023/04/12 08:56:28;;;;;;;;;;;;;;;14.74;46.45;99274.63;7261669;19;157380;-55
2023/04/12 08:58:56;;;;;;;;;;;;;;;14.76;46.23;99277.91;7255911;19;153277;-55
2023/04/12 09:01:23;;;;;;;;;;;;;;;14.74;46.05;99272.66;7255966;19;154054;-55
2023/04/12 09:03:51;;;;;;;;;;;;;;;14.73;46.20;99256.28;7253239;19;153697;-55
2023/04/12 09:06:19;;;;;;;;;;;;;;;14.75;45.99;99271.53;7253783;19;153728;-55
2023/04/12 09:08:49;;;;;;;;;;;;;;;14.73;45.83;99271.00;7253155;19;154696;-54
2023/04/12 09:11:19;;;;;;;;;;;;;;;14.74;45.79;99255.16;7258829;19;154651;-56
2023/04/12 09:13:47;;;;;;;;;;;;;;;14.74;45.73;99257.94;7261214;19;154489;-56
2023/04/12 09:16:14;;;;;;;;;;;;;;;14.74;45.88;99255.16;7255076;19;154466;-56
2023/04/12 09:18:44;;;;;;;;;;;;;;;14.77;45.72;99260.09;7262473;19;155753;-56
2023/04/12 09:21:12;;;;;;;;;;;;;;;14.79;45.94;99261.44;7254369;19;155221;-56
2023/04/12 09:23:40;;;;;;;;;;;;;;;14.77;46.00;99260.91;7253608;19;154285;-56
2023/04/12 09:26:08;;;;;;;;;;;;;;;14.82;45.92;99252.47;7259477;19;154655;-56
2023/04/12 09:28:35;;;;;;;;;;;;;;;14.79;45.49;99255.88;7256122;19;153508;-56
2023/04/12 09:31:03;;;;;;;;;;;;;;;14.82;45.55;99258.03;7255181;19;156235;-54
2023/04/12 09:33:35;;;;;;;;;;;;;;;14.84;45.92;99257.72;7250549;19;154425;-55
2023/04/12 09:36:12;;;;;;;;;;;;;;;14.82;45.90;99263.59;7251972;19;152716;-56
2023/04/12 09:38:41;;;;;;;;;;;;;;;14.83;45.96;99258.84;7251125;19;153937;-55
2023/04/12 09:41:12;;;;;;;;;;;;;;;14.84;45.74;99260.50;7260528;19;154742;-55
2023/04/12 09:43:40;;;;;;;;;;;;;;;14.84;45.99;99250.19;7255327;19;154370;-56
2023/04/12 09:46:10;;;;;;;;;;;;;;;14.84;46.07;99247.44;7252817;19;153293;-55
2023/04/12 09:48:39;;;;;;;;;;;;;;;14.84;46.03;99243.81;7252787;19;155193;-56
2023/04/12 09:51:07;;;;;;;;;;;;;;;14.86;45.65;99242.34;7252899;19;154072;-55
2023/04/12 09:53:37;;;;;;;;;;;;;;;14.88;45.73;99242.88;7254340;19;153723;-55
2023/04/12 09:56:07;;;;;;;;;;;;;;;14.89;45.61;99232.59;7251028;19;156001;-55
2023/04/12 09:58:35;;;;;;;;;;;;;;;14.87;45.81;99234.84;7249887;19;153298;-56
2023/04/12 10:01:04;;;;;;;;;;;;;;;14.89;45.56;99230.63;7250263;19;153731;-56
2023/04/12 10:03:32;;;;;;;;;;;;;;;14.90;45.71;99229.47;7257250;19;153438;-56
2023/04/12 10:06:02;;;;;;;;;;;;;;;14.89;45.67;99204.78;7254544;19;153015;-56
2023/04/12 10:08:37;;;;;;;;;;;;;;;14.91;45.69;99208.88;7256353;19;154813;-56
2023/04/12 10:11:06;;;;;;;;;;;;;;;14.90;45.52;99207.22;7252775;19;157131;-56
2023/04/12 10:13:34;;;;;;;;;;;;;;;14.92;45.74;99206.94;7254103;19;152268;-56
2023/04/12 10:16:04;;;;;;;;;;;;;;;14.93;45.58;99200.25;7251030;19;152919;-56
2023/04/12 10:18:34;;;;;;;;;;;;;;;14.92;45.19;99196.63;7253491;19;153465;-56
2023/04/12 10:21:02;;;;;;;;;;;;;;;14.93;45.48;99200.25;7251008;19;153436;-56
2023/04/12 10:23:32;;;;;;;;;;;;;;;14.92;45.40;99193.03;7261822;19;153503;-56
2023/04/12 10:26:01;;;;;;;;;;;;;;;14.93;45.41;99181.59;7251092;19;154746;-54
2023/04/12 10:28:29;;;;;;;;;;;;;;;14.96;44.89;99175.41;7253190;19;153762;-55
2023/04/12 10:30:57;;;;;;;;;;;;;;;14.96;44.92;99175.41;7252019;19;155248;-55
2023/04/12 10:33:25;;;;;;;;;;;;;;;15.00;44.58;99168.06;7249826;19;154986;-55
2023/04/12 10:35:53;;;;;;;;;;;;;;;15.04;44.67;99177.41;7248314;19;155325;-55
2023/04/12 10:38:23;;;;;;;;;;;;;;;15.10;44.55;99145.59;7251094;19;153448;-55
2023/04/12 10:40:54;;;;;;;;;;;;;;;15.09;44.87;99127.25;7248272;19;154065;-55
2023/04/12 10:43:22;;;;;;;;;;;;;;;15.13;44.61;99119.91;7255857;19;153043;-56
2023/04/12 10:45:49;;;;;;;;;;;;;;;15.18;44.59;99107.00;7257318;19;154111;-55
2023/04/12 10:48:19;;;;;;;;;;;;;;;15.22;44.48;99119.16;7248861;19;154503;-55
2023/04/12 10:50:47;;;;;;;;;;;;;;;15.26;44.45;99104.31;7251933;19;154117;-55
2023/04/12 10:53:17;;;;;;;;;;;;;;;15.29;44.29;99100.88;7254448;19;153132;-55
2023/04/12 10:55:45;;;;;;;;;;;;;;;15.32;44.13;99110.53;7251966;19;153368;-55
2023/04/12 10:58:16;;;;;;;;;;;;;;;15.33;43.93;99117.75;7251890;19;154286;-55
2023/04/12 11:00:46;;;;;;;;;;;;;;;15.38;44.00;99103.69;7255264;19;155184;-55
2023/04/12 11:03:24;;;;;;;;;;;;;;;15.39;43.59;99097.00;7253828;19;153576;-55
2023/04/12 11:05:55;;;;;;;;;;;;;;;15.39;43.41;99103.41;7256765;19;155106;-55
2023/04/12 11:08:23;;;;;;;;;;;;;;;15.38;43.30;99104.53;7265706;19;153328;-55
2023/04/12 11:10:50;;;;;;;;;;;;;;;15.37;43.46;99099.28;7257918;19;153924;-55
2023/04/12 11:13:19;;;;;;;;;;;;;;;15.34;43.41;99100.75;7255870;19;154446;-55
2023/04/12 11:15:52;;;;;;;;;;;;;;;15.36;43.08;99098.44;7256168;19;153417;-55
2023/04/12 11:18:20;;;;;;;;;;;;;;;15.36;43.29;99112.34;7253736;19;154448;-55
2023/04/12 11:20:51;;;;;;;;;;;;;;;15.38;43.00;99098.13;7257918;19;153906;-55
2023/04/12 11:23:19;;;;;;;;;;;;;;;15.47;43.04;99073.97;7259176;19;153911;-55
2023/04/12 11:25:50;;;;;;;;;;;;;;;15.45;43.07;99092.94;7255785;19;154206;-55
2023/04/12 11:28:18;;;;;;;;;;;;;;;15.50;42.56;99076.94;7256587;19;153764;-55
2023/04/12 11:30:56;;;;;;;;;;;;;;;15.54;42.33;99071.56;7260653;19;154442;-55
2023/04/12 11:33:27;;;;;;;;;;;;;;;15.53;42.46;99115.28;7254628;19;153260;-55
2023/04/12 11:35:54;;;;;;;;;;;;;;;15.54;42.42;99061.25;7256102;19;153628;-55
2023/04/12 11:38:22;;;;;;;;;;;;;;;15.56;42.24;99058.97;7253459;19;154764;-55
2023/04/12 11:40:50;;;;;;;;;;;;;;;15.54;41.95;99069.59;7254790;19;153161;-55
2023/04/12 11:43:18;;;;;;;;;;;;;;;15.53;42.15;99061.59;7256365;19;153377;-56
2023/04/12 11:45:46;;;;;;;;;;;;;;;15.51;42.26;99088.91;7250916;19;154191;-56
2023/04/12 11:48:15;;;;;;;;;;;;;;;15.49;42.24;99060.56;7250687;19;152812;-55
2023/04/12 11:50:44;;;;;;;;;;;;;;;15.47;42.17;99080.34;7254406;19;153937;-56
2023/04/12 11:53:26;;;;;;;;;;;;;;;15.52;42.21;99046.84;7262686;19;154241;-55
2023/04/12 11:55:54;;;;;;;;;;;;;;;15.47;42.24;99038.59;7262398;19;153537;-56
2023/04/12 11:58:25;;;;;;;;;;;;;;;15.47;42.01;99080.34;7257804;19;155274;-56
2023/04/12 12:00:53;;;;;;;;;;;;;;;15.50;42.20;99074.16;7264132;19;153563;-56
2023/04/12 12:03:25;;;;;;;;;;;;;;;15.45;42.13;99076.22;7259021;19;152799;-56
2023/04/12 12:05:53;;;;;;;;;;;;;;;15.47;41.94;99052.53;7261518;19;153978;-55
2023/04/12 12:08:23;;;;;;;;;;;;;;;15.49;42.30;99027.16;7265892;19;153448;-56
2023/04/12 12:10:50;;;;;;;;;;;;;;;15.50;42.04;99012.94;7262764;19;153274;-53
2023/04/12 12:13:36;;;;;;;;;;;;;;;15.56;42.01;98978.25;7259040;19;156929;-55
2023/04/12 12:16:07;;;;;;;;;;;;;;;15.55;42.11;98984.97;7263305;19;153267;-55
2023/04/12 12:18:38;;;;;;;;;;;;;;;15.51;42.55;98983.97;7256261;19;154404;-54
2023/04/12 12:21:08;;;;;;;;;;;;;;;15.49;42.51;99039.09;7255832;19;153222;-55
2023/04/12 12:23:36;;;;;;;;;;;;;;;15.49;42.50;99035.50;7254929;19;154849;-55
2023/04/12 12:26:05;;;;;;;;;;;;;;;15.54;42.42;99027.84;7252603;19;153335;-55
2023/04/12 12:28:48;;;;;;;;;;;;;;;15.56;42.78;98999.72;7256297;19;155032;-55
2023/04/12 12:31:18;;;;;;;;;;;;;;;15.56;42.77;98980.22;7252695;19;154144;-55
2023/04/12 12:33:46;;;;;;;;;;;;;;;15.56;42.93;98975.47;7254706;19;154675;-55
2023/04/12 12:36:17;;;;;;;;;;;;;;;15.61;42.57;98970.91;7261063;19;152508;-55
2023/04/12 12:38:44;;;;;;;;;;;;;;;15.55;43.03;98965.47;7258044;19;155088;-55
2023/04/12 12:41:15;;;;;;;;;;;;;;;15.59;42.68;98957.31;7258273;19;153674;-54